Tiempo atmosférico en la estación meteorológica de Quintanar De La Orden, Toledo (691 m.)



Fecha
DESCASC
Temp. máxima en grados centígrados (hora)
DESCASC
Temp. mínima en grados centígrados (hora)
DESCASC
Temp. media en grados centígrados
DESCASC
Racha de viento máxima en m/sg (hora)
DESCASC
Velocidad máxima media en intervalos de 10 minutos(hora)
DESCASC
Precipitaciones diarias en mm
DESCASC
Precipitaciones de 00:00 a 06:00 en mm
DESCASC
Precipitaciones de 06:00 a 12:00 en mm
DESCASC
Precipitaciones de 12:00 a 18:00 en mm
DESCASC
Precipitaciones de 18:00 a 24:00 en mm
DESCASC
16-06-2019 28.5 (19:50) 12.6 (04:50) 20.6 8.06 (16:20) 2.78 (11:20) 0 0 0 0 0
15-06-2019 25.7 (19:00) 9.8 (07:30) 17.8 7.22 (18:20) 2.78 (14:20) 0 0 0 0 0
14-06-2019 25.1 (17:10) 14.2 (07:30) 19.7 12.5 (16:40) 6.39 (13:20) 0 0 0 0 0
13-06-2019 27.2 (18:00) 13.8 (00:00) 20.5 10.56 (05:10) 3.61 (12:40) 0 0 0 0 0
12-06-2019 25.6 (17:30) 10.4 (00:00) 18 9.72 (23:50) 3.33 (19:00) 0 0 0 0 0
11-06-2019 21.4 (18:30) 11.5 (00:00) 16.4 9.72 (15:40) 5 (14:00) 0 0 0 0 0
10-06-2019 26.1 (18:10) 11.7 (00:00) 18.9 9.17 (16:40) 2.78 (17:50) 0 0 0 0 0
09-06-2019 27 (18:10) 13.5 (00:00) 20.3 9.44 (17:20) 5.28 (19:40) 0 0 0 0 0
08-06-2019 28.2 (16:10) 11.3 (00:00) 19.8 12.22 (16:40) 4.17 (09:50) 0 0 0 0 0
07-06-2019 22.6 (19:30) 11.6 (00:00) 17.1 8.33 (10:30) 4.17 (03:20) 0 0 0 0 0
06-06-2019 25 (18:00) 9.7 (00:00) 17.3 12.22 (15:20) 6.94 (16:20) 0 0 0 0 0
05-06-2019 21.4 (17:20) 11.5 (00:00) 16.4 11.39 (11:40) 5.83 (11:30) 0 0 0 0 0
04-06-2019 29.7 (17:00) 16.2 (00:00) 23 13.33 (15:40) 6.94 (13:30) 0 0 0 0 0
03-06-2019 33.6 (16:50) 17.6 (00:00) 25.6 9.44 (17:20) 3.89 (14:20) 0 0 0 0 0
02-06-2019 33 (17:30) 15.7 (00:00) 24.3 7.78 (03:30) 2.78 (04:40) 0 0 0 0 0
01-06-2019 32.6 (17:20) 15.4 (00:00) 24 8.89 (09:00) 2.78 (09:10) 0 0 0 0 0
31-05-2019 30.7 (17:10) 14.9 (00:00) 22.8 6.67 (17:20) 2.5 (10:10) 0 0 0 0 0
30-05-2019 29.5 (16:40) 10.7 (00:00) 20.1 6.94 (18:50) 2.78 (00:30) 0 0 0 0 0
29-05-2019 25.4 (17:40) 10 (00:00) 17.7 12.22 (18:20) 4.72 (10:50) 0 0 0 0 0
28-05-2019 26.8 (18:20) 12.3 (00:00) 19.5 9.17 (16:40) 3.89 (18:40) 0 0 0 0 0
27-05-2019 28.1 (18:40) 10.6 (00:00) 19.4 9.44 (17:30) 3.89 (17:30) 0 0 0 0 0
26-05-2019 26 (19:10) 9.7 (00:00) 17.8 10.83 (14:10) 5 (15:30) 0 0 0 0 0
25-05-2019 24.4 (18:50) 9.6 (00:00) 17 8.61 (12:40) 4.17 (13:00) 0 0 0 0 0
24-05-2019 24.5 (15:50) 14.3 (00:00) 19.4 9.72 (12:40) 4.44 (17:50) 0 0 0 0 0
23-05-2019 27.6 (18:30) 14.6 (00:00) 21.1 7.5 (15:50) 4.17 (19:30) 0 0 0 0 0
22-05-2019 27.1 (18:20) 12.6 (00:00) 19.9 7.78 (02:10) 3.06 (15:40) 0 0 0 0 0

Gráficas

Temp. máximas Temp. mínimas Temp. medias Precipitaciones Rachas de viento máximas Velocidades máximas media en intervalos de 10 minutos

Datos horarios

Fecha y hora oficial Temperatura (ºC) Velocidad del viento (km/h) Dirección del viento Racha (km/h) Dirección de racha Precipitación (mm) Presión (hPa) Tendencia (hPa) Humedad (%)
2019-06-20 23:00:00 23.2 3 Norte 13 Noroeste 0 933.8 1.4 41
2019-06-20 22:00:00 24.9 3 Norte 12 Noroeste 0 933 0.7 37
2019-06-20 21:00:00 26.4 6 Noroeste 19 Oeste 0 932.3 -0.1 35
2019-06-20 20:00:00 27.5 3 Norte 22 Noroeste 0 932.4 -0.6 33
2019-06-20 19:00:00 27.8 8 Noroeste 23 Oeste 0 932.3 -1.2 34
2019-06-20 18:00:00 28.9 2 Oeste 23 Sudoeste 0 932.4 -1.6 34
2019-06-20 17:00:00 28.6 3 Noroeste 26 Sudoeste 0 933 -1.7 34
2019-06-20 16:00:00 27.5 13 Oeste 28 Oeste 0 933.5 -2.1 36
2019-06-20 15:00:00 26.8 2 Noroeste 18 Noroeste 0 934 -1 40
2019-06-20 14:00:00 25.2 4 Sudoeste 17 Sudoeste 0 934.7 -0.8 44
2019-06-20 13:00:00 25 2 Nordeste 15 Sur 0 935.6 -0.3 48
2019-06-20 12:00:00 23.6 5 Sudoeste 14 Oeste 0 935 -0.7 50
2019-06-20 11:00:00 20.7 3 Noroeste 9 Norte 0 935.5 0.1 57
2019-06-20 10:00:00 19.7 3 Norte 10 Noroeste 0 935.9 0.4 60
2019-06-20 09:00:00 17.9 3 Sur 6 Sur 0 935.7 0.4 62
2019-06-20 08:00:00 16 2 Sudoeste 3 Sudoeste 0 935.4 -0.1 64
2019-06-20 07:00:00 15.1 0 Calma 3 Sudoeste 0 935.5 0.2 63
2019-06-20 06:00:00 16.2 0 Calma 6 Sur 0 935.3 -0.4 61
2019-06-20 05:00:00 15.7 0 Calma 6 Sudoeste 0 935.5 -0.6 59
2019-06-20 04:00:00 17.8 0 Calma 5 Nordeste 0 935.3 -0.6 57
2019-06-20 03:00:00 18.2 2 Nordeste 6 Norte 0 935.7 -0.2 53
2019-06-20 02:00:00 19.3 0 Calma 5 Nordeste 0 936.1 0.6 50
2019-06-20 01:00:00 20.1 2 Nordeste 10 Nordeste 0 935.9 0.9 49
2019-06-20 00:00:00 21 5 Norte 12 Norte 0 935.9 1.4 47
2019-06-19 23:00:00 22.2 5 Norte 15 Norte 0 935.5 1.1 45
2019-06-19 22:00:00 23.8 7 Noroeste 25 Noroeste 0 935 0.7 39
2019-06-19 21:00:00 25.4 11 Noroeste 27 Noroeste 0 934.5 0 37
2019-06-19 20:00:00 26.6 12 Noroeste 27 Noroeste 0 934.4 -0.7 35
2019-06-19 19:00:00 28.1 6 Oeste 31 Noroeste 0 934.3 -0.6 34
2019-06-19 18:00:00 28.1 13 Oeste 32 Oeste 0 934.5 -1.6 34
2019-06-19 17:00:00 28.2 6 Sudoeste 34 Oeste 0 935.1 -1.6 35
2019-06-19 16:00:00 27.4 7 Sudoeste 26 Oeste 0 934.9 -2 39
2019-06-19 15:00:00 26 4 Oeste 27 Noroeste 0 936.1 -1.1 42
2019-06-19 14:00:00 24.5 5 Sudoeste 27 Sudoeste 0 936.7 -0.5 47
2019-06-19 13:00:00 23.2 8 Sudoeste 20 Oeste 0 936.9 -0.6 51
2019-06-19 12:00:00 21.6 5 Sudoeste 21 Noroeste 0 937.2 -0.1 57
2019-06-19 11:00:00 20.6 6 Sudoeste 17 Sudoeste 0 937.2 0.1 61
2019-06-19 10:00:00 19.4 5 Noroeste 10 Noroeste 0 937.5 1.1 63
2019-06-19 09:00:00 17.6 0 Calma 6 Noroeste 0 937.3 1.1 65
2019-06-19 08:00:00 15.9 3 Oeste 6 Sudoeste 0 937.1 1 67
2019-06-19 07:00:00 15.6 0 Calma 5 Sudoeste 0 936.4 0.5 64
2019-06-19 06:00:00 16.3 0 Calma 6 Noroeste 0 936.2 0.4 57
2019-06-19 05:00:00 16.6 0 Calma 3 Nordeste 0 936.1 0.1 46
2019-06-19 04:00:00 17.5 0 Calma 6 Norte 0 935.9 0 43
2019-06-19 03:00:00 18.4 2 Oeste 7 Sudoeste 0 935.8 -0.3 39
2019-06-19 02:00:00 19.3 3 Sur 8 Sur 0 936 0.3 33
2019-06-19 01:00:00 19.7 0 Calma 5 Norte 0 935.9 1.1 31
2019-06-19 00:00:00 21 3 Noroeste 14 Noroeste 0 936.1 1.8 27
2019-06-18 23:00:00 22 6 Oeste 15 Oeste 0 935.7 1.6 24
2019-06-18 22:00:00 24.6 9 Oeste 23 Oeste 0 934.8 0.8 23
2019-06-18 21:00:00 27 13 Sudoeste 36 Sudoeste 0 934.3 0.4 23
2019-06-18 20:00:00 28.4 18 Oeste 36 Sudoeste 0 934.1 -0.1 23
2019-06-18 19:00:00 28.9 18 Oeste 40 Sudoeste 0 934 -0.3 23
2019-06-18 18:00:00 29.9 13 Oeste 39 Oeste 0 933.9 -0.9 24
2019-06-18 17:00:00 30.1 12 Sudoeste 36 Oeste 0 934.2 -1.7 26
2019-06-18 16:00:00 29.4 21 Sudoeste 38 Sudoeste 0 934.3 -1.9 24
2019-06-18 15:00:00 29.3 15 Sudoeste 41 Oeste 0 934.8 -1.4 27
2019-06-18 14:00:00 27.5 15 Sudoeste 33 Sudoeste 0 935.9 -0.3 30
2019-06-18 13:00:00 26.5 19 Sudoeste 31 Oeste 0 936.2 -0.3 31
2019-06-18 12:00:00 25.2 12 Sudoeste 32 Noroeste 0 936.2 -0.1 31
2019-06-18 11:00:00 23.8 9 Sudoeste 27 Sudoeste 0 936.2 0 32
2019-06-18 10:00:00 22 9 Sudoeste 21 Sudoeste 0 936.5 0.7 34
2019-06-18 09:00:00 19.4 0 Calma 12 Sudeste 0 936.3 1 36
2019-06-18 08:00:00 18.9 5 Sur 12 Sur 0 936.2 1 34
2019-06-18 07:00:00 18.3 6 Sur 15 Sur 0 935.8 0.4 34
2019-06-18 06:00:00 19.5 5 Sur 13 Sur 0 935.3 -0.3 32
2019-06-18 05:00:00 19.9 3 Sudoeste 8 Sur 0 935.2 -0.4 31
2019-06-18 04:00:00 20.3 2 Sur 7 Sudeste 0 935.4 -0.1 31
2019-06-18 03:00:00 21 2 Sudeste 10 Sudeste 0 935.6 0.1 31
2019-06-18 02:00:00 21.7 2 Sudoeste 5 Sudoeste 0 935.6 0.7 30
2019-06-18 01:00:00 22.5 2 Sur 6 Sur 0 935.5 0.8 30
2019-06-18 00:00:00 23.7 3 Sudoeste 9 Oeste 0 935.5 1.2 28
2019-06-17 23:00:00 24.6 6 Oeste 10 Sudoeste 0 934.9 0.2 27
2019-06-17 22:00:00 26.4 6 Sudoeste 10 Oeste 0 934.7 0.2 27
2019-06-17 21:00:00 28.4 8 Oeste 24 Norte 0 934.3 -1 26
2019-06-17 20:00:00 29.5 6 Sudoeste 23 Sudoeste 0 934.7 -0.9 25
2019-06-17 19:00:00 30 8 Oeste 28 Sudoeste 0 934.5 -2.1 25
2019-06-17 18:00:00 30.1 9 Sudoeste 26 Oeste 0 935.3 -1.5 25
2019-06-17 17:00:00 29.4 12 Oeste 29 Sudoeste 0 935.6 -2.1 25
2019-06-17 16:00:00 29.6 7 Sur 26 Sur 0 936.6 -1.3 27
2019-06-17 15:00:00 29.1 8 Sudoeste 27 Oeste 0 936.8 -1.3 28
2019-06-17 14:00:00 27.5 3 Sudoeste 19 Oeste 0 937.7 -1 30
2019-06-17 13:00:00 26 0 Calma 15 Oeste 0 937.9 -1 33
2019-06-17 12:00:00 23.9 2 Sur 9 Noroeste 0 938.1 -0.5 37
2019-06-17 11:00:00 21.6 2 Oeste 10 Sudoeste 0 938.7 0 42
2019-06-17 10:00:00 19.7 5 Sudoeste 12 Sudoeste 0 938.9 0.9 46
2019-06-17 09:00:00 16.7 3 Sudoeste 11 Sudoeste 0 938.6 0.6 51
2019-06-17 08:00:00 14.8 4 Sur 11 Sur 0 938.7 1.1 53
2019-06-17 07:00:00 14.4 3 Sudeste 9 Sudeste 0 938 0.4 54
2019-06-17 06:00:00 15.1 3 Sur 11 Sur 0 938 0 54
2019-06-17 05:00:00 16.3 3 Sudeste 10 Sur 0 937.6 -0.6 56
2019-06-17 04:00:00 17.1 3 Sur 8 Sur 0 937.6 -0.4 57
2019-06-17 03:00:00 17.8 4 Sur 16 Sur 0 938 0 58
2019-06-17 02:00:00 18.6 8 Sur 21 Sudeste 0 938.2 0.1 56
2019-06-17 01:00:00 19.8 7 Sudeste 20 Sudeste 0 938 0.3 51
2019-06-17 00:00:00 21.5 8 Sudeste 19 Sur 0 938 0.8 45
2019-06-16 23:00:00 22.8 5 Sudeste 19 Sudeste 0 938.1 1.4 36
2019-06-16 22:00:00 24.4 6 Sudeste 19 Sudeste 0 937.7 0.8 30
2019-06-16 21:00:00 25.9 7 Sur 23 Sur 0 937.2 0.1 29
2019-06-16 20:00:00 28 4 Sudeste 18 Sur 0 936.7 -0.9 27
2019-06-16 19:00:00 28.2 8 Sur 19 Oeste 0 936.9 -0.6 26
2019-06-16 18:00:00 27.4 7 Sudoeste 22 Sur 0 937.1 -1.2 26
2019-06-16 17:00:00 28 5 Sur 29 Sudoeste 0 937.6 -1.2 29
2019-06-16 16:00:00 27 8 Sur 22 Sur 0 937.5 -1.5 32
2019-06-16 15:00:00 27.6 6 Sur 21 Oeste 0 938.3 -0.7 32
2019-06-16 14:00:00 26.9 4 Sur 21 Sur 0 938.8 -0.5 35
2019-06-16 13:00:00 25.6 7 Sur 24 Sudeste 0 939 -0.5 38
2019-06-16 12:00:00 23.5 9 Sur 27 Sudeste 0 939 -0.2 42
2019-06-16 11:00:00 20.8 7 Sudeste 24 Sudeste 0 939.3 0.4 45
2019-06-16 10:00:00 19.4 6 Sudeste 27 Sur 0 939.5 1.3 46
2019-06-16 09:00:00 16.9 9 Sudeste 26 Sudeste 0 939.2 1.1 48
2019-06-16 08:00:00 15.7 5 Sudeste 17 Sudeste 0 938.9 0.6 49
2019-06-16 07:00:00 15 3 Sudeste 13 Sur 0 938.2 -0.8 45
2019-06-16 06:00:00 13.1 2 Sur 8 Sudeste 0 938.1 -0.8 41
2019-06-16 05:00:00 13 0 Calma 6 Nordeste 0 938.3 -0.8 39
2019-06-16 04:00:00 16 0 Calma 10 Sudeste 0 939 -0.4 37
2019-06-16 03:00:00 15 2 Sur 13 Sudoeste 0 938.9 -0.3 37
2019-06-16 02:00:00 16.6 2 Este 8 Este 0 939.1 -0.1 34
2019-06-16 01:00:00 16.8 0 Calma 6 Este 0 939.4 1 34
2019-06-16 00:00:00 18.1 3 Nordeste 13 Norte 0 939.2 0.9 33
2019-06-15 23:00:00 20.6 3 Nordeste 7 Este 0 939.2 1.3 31
2019-06-15 22:00:00 22.7 2 Nordeste 7 Nordeste 0 938.4 0.4 30
2019-06-15 21:00:00 23.4 6 Sudoeste 12 Sudoeste 0 938.3 0.2 29
2019-06-15 20:00:00 25.1 2 Noroeste 17 Nordeste 0 937.9 -0.5 28
2019-06-15 19:00:00 25.5 3 Norte 26 Oeste 0 938 -0.8 27
2019-06-15 18:00:00 24.4 3 Oeste 18 Noroeste 0 938.1 -1.1 29
2019-06-15 17:00:00 24.3 2 Oeste 18 Noroeste 0 938.4 -1.2 30
2019-06-15 16:00:00 23.1 4 Norte 21 Sudoeste 0 938.8 -1.4 34
2019-06-15 15:00:00 21.6 4 Oeste 24 Noroeste 0 939.2 -0.9 37
2019-06-15 14:00:00 20.4 5 Norte 16 Nordeste 0 939.6 -0.5 41
2019-06-15 13:00:00 18.6 6 Noroeste 18 Noroeste 0 940.2 0 43
2019-06-15 12:00:00 17.4 4 Norte 21 Noroeste 0 940.1 0.5 48
2019-06-15 11:00:00 16.2 3 Noroeste 15 Sur 0 940.1 0.6 53
2019-06-15 10:00:00 14.5 5 Noroeste 13 Norte 0 940.2 1.3 58
2019-06-15 09:00:00 12.6 4 Sudoeste 9 Sudoeste 0 939.6 1.1 63
2019-06-15 08:00:00 10.7 3 Sudoeste 6 Sudoeste 0 939.5 -- 63
2019-06-15 07:00:00 10.9 3 Noroeste 6 Noroeste 0 938.9 0.6 61
2019-06-15 06:00:00 11.4 3 Noroeste 6 Noroeste 0 938.5 0.2 58
2019-06-15 05:00:00 -- 0 Calma 7 Oeste 0 -- -- 57
2019-06-15 04:00:00 12 0 Calma 5 Sudoeste 0 938.3 0.3 54
2019-06-15 03:00:00 13.1 0 Calma 12 Noroeste 0 938.3 0.9 51
2019-06-15 02:00:00 14.2 7 Noroeste 15 Noroeste 0 938.1 1.4 47
2019-06-15 01:00:00 14.9 3 Oeste 13 Sudoeste 0 938 2.3 44
2019-06-15 00:00:00 15.9 3 Oeste 16 Norte 0 937.4 2.5 38
2019-06-14 23:00:00 17.5 8 Noroeste 28 Noroeste 0 936.7 2.5 36
2019-06-14 22:00:00 18.6 15 Noroeste 32 Noroeste 0 935.7 2.5 34
2019-06-14 21:00:00 21.1 6 Norte 30 Noroeste 0 934.9 1.2 30
2019-06-14 20:00:00 22.9 5 Norte 32 Oeste 0 934.2 0.8 29
2019-06-14 19:00:00 24.5 4 Oeste 40 Oeste 0 933.2 -0.8 27
2019-06-14 18:00:00 24.2 9 Oeste 40 Sudoeste 0 933.7 -0.1 27
2019-06-14 17:00:00 24.4 12 Oeste 45 Sudoeste 0 933.4 -0.3 28
2019-06-14 16:00:00 24.1 19 Oeste 42 Oeste 0 934 0.4 28
2019-06-14 15:00:00 23.7 15 Sudoeste 42 Sudoeste 0 933.8 0.3 28
2019-06-14 14:00:00 22.6 20 Sudoeste 39 Oeste 0 933.7 -0.3 31
2019-06-14 13:00:00 21.6 19 Sudoeste 37 Sudoeste 0 933.6 0.3 38
2019-06-14 12:00:00 21.1 18 Sudoeste 36 Oeste 0 933.5 -0.1 43
2019-06-14 11:00:00 20 8 Sudoeste 23 Oeste 0 934 1.4 41
2019-06-14 10:00:00 17.7 5 Noroeste 13 Noroeste 0 933.3 1.1 44
2019-06-14 09:00:00 16.1 6 Norte 12 Norte 0 933.6 2.2 53
2019-06-14 08:00:00 14.4 0 Calma 5 Noroeste 0 932.6 1.3 77
2019-06-14 07:00:00 14.6 0 Calma 6 Noroeste 0 932.2 1.1 74
2019-06-14 06:00:00 15.6 0 Calma 5 Sudoeste 0 931.4 0.3 71
2019-06-14 05:00:00 16.7 0 Calma 9 Sudeste 0 931.3 0 68
2019-06-14 04:00:00 16.9 2 Este 8 Nordeste 0 931.1 -0.6 68
2019-06-14 03:00:00 17.2 2 Este 19 Sur 0 931.1 -0.9 65
2019-06-14 02:00:00 17.6 6 Sudeste 27 Sudeste 0 931.3 0.4 63
2019-06-14 01:00:00 18.6 9 Sudeste 28 Sudeste 0 931.7 1.8 60
2019-06-14 00:00:00 19.4 9 Sudeste 27 Sudeste 0 932 2.7 55
2019-06-13 23:00:00 20.7 10 Sudeste 26 Sur 0 930.9 1.7 52
2019-06-13 22:00:00 21.9 11 Sudeste 27 Sur 0 929.9 0.9 48
2019-06-13 21:00:00 25.1 5 Sudeste 20 Sur 0 929.3 -0.1 39
2019-06-13 20:00:00 25.9 8 Sur 22 Sur 0 929.2 -0.9 37
2019-06-13 19:00:00 26.5 7 Sur 23 Sudoeste 0 929 -1.1 37
2019-06-13 18:00:00 26.9 7 Sur 21 Sur 0 929.4 -1.4 36
2019-06-13 17:00:00 25.6 9 Sur 24 Sur 0 930.1 -1.2 39
2019-06-13 16:00:00 26.2 6 Sur 27 Sur 0 930.1 -1.3 39
2019-06-13 15:00:00 26.4 7 Sudeste 27 Sudeste 0 930.8 -1.5 41
2019-06-13 14:00:00 24.3 9 Sudeste 31 Sur 0 931.3 -1 43
2019-06-13 13:00:00 23.2 8 Sur 29 Sudeste 0 931.4 -1.1 47
2019-06-13 12:00:00 22.4 10 Sur 29 Sur 0 932.3 0.3 50
2019-06-13 11:00:00 20.1 9 Sur 28 Sur 0 932.3 0.7 60
2019-06-13 10:00:00 17.9 9 Sur 28 Sur 0 932.5 1.1 66
2019-06-13 09:00:00 16.3 9 Sur 29 Sur 0 932 0.9 74
2019-06-13 08:00:00 14.4 10 Sudeste 33 Sur 0 931.6 0.8 81
2019-06-13 07:00:00 13.8 9 Sudeste 26 Sur 0 931.4 0.5 83
2019-06-13 06:00:00 14 9 Sudeste 38 Sur 0 931.1 -0.2 84
2019-06-13 05:00:00 14.1 10 Sudeste 33 Sudeste 0 930.8 -0.9 85
2019-06-13 04:00:00 13.9 10 Sudeste 35 Sudeste 0 930.9 -0.6 84
2019-06-13 03:00:00 14.3 9 Sudeste 37 Sudeste 0 931.3 -0.1 76
2019-06-13 02:00:00 15.3 10 Sudeste 36 Sur 0 931.7 0.7 65
2019-06-13 01:00:00 17.2 10 Sudeste 31 Sudeste 0 931.5 1.2 64
2019-06-13 00:00:00 18.4 10 Sudeste 35 Sudeste 0 931.4 1.6 56
2019-06-12 23:00:00 21.2 5 Sudeste 16 Sur 0 931 0.7 39
2019-06-12 22:00:00 21.8 3 Sudoeste 17 Sudoeste 0 930.3 0 25
2019-06-12 21:00:00 23.9 10 Sudoeste 25 Sudoeste 0 929.8 -1.4 23
2019-06-12 20:00:00 25.4 5 Sudoeste 29 Sudoeste 0 930.3 -1.4 23
2019-06-12 19:00:00 24.9 12 Sudoeste 26 Oeste 0 930.3 -2 23
2019-06-12 18:00:00 24.9 8 Sudoeste 26 Sudoeste 0 931.2 -2 23
2019-06-12 17:00:00 23.7 4 Noroeste 23 Sudoeste 0 931.7 -2 26
2019-06-12 16:00:00 23.4 3 Sudoeste 27 Noroeste 0 932.3 -1.9 27
2019-06-12 15:00:00 22 3 Noroeste 21 Sudoeste 0 933.2 -1.3 30
2019-06-12 14:00:00 21.2 7 Sudoeste 23 Oeste 0 933.7 -1 32
2019-06-12 13:00:00 20.6 2 Sur 17 Sudeste 0 934.2 -0.4 37
2019-06-12 12:00:00 19.7 6 Sur 19 Sur 0 934.5 -0.3 41
2019-06-12 11:00:00 17.7 4 Sudeste 26 Sur 0 934.7 0.1 49
2019-06-12 10:00:00 15.2 9 Sudeste 26 Sudeste 0 934.6 0.3 57
2019-06-12 09:00:00 12.7 8 Sudeste 26 Sur 0 934.8 1.2 67
2019-06-12 08:00:00 11.1 8 Sudeste 25 Sudeste 0 934.6 0.9 71
2019-06-12 07:00:00 10.5 7 Sudeste 19 Sur 0 934.3 0.2 66
2019-06-12 06:00:00 10.8 5 Sudeste 18 Sur 0 933.6 -0.7 65
2019-06-12 05:00:00 11.3 0 Calma 12 Sudoeste 0 933.7 -1.1 72
2019-06-12 04:00:00 11.8 4 Sudeste 16 Sur 0 934.1 -0.8 68
2019-06-12 03:00:00 11.9 3 Sudeste 11 Sudeste 0 934.3 -0.3 57
2019-06-12 02:00:00 12 0 Calma 12 Este 0 934.8 0.1 44
2019-06-12 01:00:00 12.3 4 Nordeste 10 Nordeste 0 934.9 0.9 39
2019-06-12 00:00:00 13.2 4 Nordeste 12 Nordeste 0 934.6 1.2 35
2019-06-11 23:00:00 15.2 4 Nordeste 10 Nordeste 0 934.7 1.7 34
2019-06-11 22:00:00 17.2 3 Nordeste 18 Norte 0 934 0.9 33
2019-06-11 21:00:00 18.7 10 Nordeste 27 Nordeste 0 933.4 0.5 32
2019-06-11 20:00:00 19.8 11 Nordeste 27 Nordeste 0 933 0.5 33
2019-06-11 19:00:00 20.4 14 Norte 35 Nordeste 0 933.1 0.2 35
2019-06-11 18:00:00 20.7 11 Nordeste 35 Nordeste 0 932.9 0.2 36
2019-06-11 17:00:00 20 14 Nordeste 33 Nordeste 0 932.5 -0.1 39
2019-06-11 16:00:00 19.9 15 Nordeste 35 Nordeste 0 932.9 1.2 40
2019-06-11 15:00:00 19.4 13 Nordeste 34 Norte 0 932.7 0.8 41
2019-06-11 14:00:00 19.2 18 Norte 35 Norte 0 932.6 1.1 42
2019-06-11 13:00:00 19.1 13 Nordeste 26 Nordeste 0 931.7 0.6 42
2019-06-11 12:00:00 19.2 9 Nordeste 23 Nordeste 0 931.9 0.6 42
2019-06-11 11:00:00 18.1 9 Nordeste 23 Nordeste 0 931.5 0 43
2019-06-11 10:00:00 17.2 6 Norte 15 Norte 0 931.1 -0.4 45
2019-06-11 09:00:00 14 0 Calma 7 Sur 0 931.3 0 45
2019-06-11 08:00:00 12.3 0 Calma 6 Norte 0 931.5 -0.2 46
2019-06-11 07:00:00 11.6 0 Calma 5 Norte 0 931.5 -0.3 45
2019-06-11 06:00:00 12.3 2 Norte 9 Noroeste 0 931.3 -0.9 45
2019-06-11 05:00:00 12.5 3 Oeste 8 Noroeste 0 931.7 -0.9 44
2019-06-11 04:00:00 14.4 0 Calma 8 Noroeste 0 931.8 -1.5 42
2019-06-11 03:00:00 15 3 Norte 14 Noroeste 0 932.2 -0.8 40
2019-06-11 02:00:00 16 6 Noroeste 13 Noroeste 0 932.6 -0.7 38
2019-06-11 01:00:00 17.2 9 Noroeste 18 Noroeste 0 933.3 0.2 35
2019-06-11 00:00:00 18.7 7 Noroeste 11 Noroeste 0 933 0.3 32
2019-06-10 23:00:00 21.1 0 Calma 8 Norte 0 933.3 0.5 30
2019-06-10 22:00:00 22.3 0 Calma 12 Noroeste 0 933.1 -0.4 29
2019-06-10 21:00:00 24 4 Norte 18 Noroeste 0 932.7 -0.8 28
2019-06-10 20:00:00 25.1 6 Norte 21 Norte 0 932.8 -1.5 27
2019-06-10 19:00:00 25.6 8 Norte 24 Noroeste 0 933.5 -1.3 27
2019-06-10 18:00:00 25.4 8 Norte 30 Noroeste 0 933.5 -1.7 28
2019-06-10 17:00:00 24.5 9 Noroeste 33 Noroeste 0 934.3 -1.4 30
2019-06-10 16:00:00 24.9 8 Noroeste 25 Noroeste 0 934.8 -1.4 32
2019-06-10 15:00:00 24.1 6 Noroeste 24 Sudoeste 0 935.2 -1.3 33
2019-06-10 14:00:00 22.9 2 Noroeste 26 Noroeste 0 935.7 -1.4 35
2019-06-10 13:00:00 21.6 6 Sudoeste 22 Oeste 0 936.2 -0.8 38
2019-06-10 12:00:00 20.3 5 Noroeste 18 Noroeste 0 936.5 -0.3 41
2019-06-10 11:00:00 19.2 3 Norte 12 Noroeste 0 937.1 0 47
2019-06-10 10:00:00 17 3 Norte 12 Noroeste 0 937 0.6 51
2019-06-10 09:00:00 14.7 4 Norte 10 Noroeste 0 936.8 0.4 53
2019-06-10 08:00:00 12.2 3 Nordeste 8 Nordeste 0 937.1 0.5 54
2019-06-10 07:00:00 12.2 0 Calma 7 Nordeste 0 936.4 -0.8 53
2019-06-10 06:00:00 12.6 0 Calma 9 Norte 0 936.4 -0.4 50
2019-06-10 05:00:00 13.2 3 Norte 12 Noroeste 0 936.6 -0.2 48
2019-06-10 04:00:00 13.8 4 Norte 12 Norte 0 937.2 0.6 44
2019-06-10 03:00:00 14.5 4 Noroeste 12 Noroeste 0 936.8 0.1 41
2019-06-10 02:00:00 14.8 2 Sudoeste 6 Oeste 0 936.8 0.1 37
2019-06-10 01:00:00 17.2 0 Calma 10 Noroeste 0 936.6 1 34
2019-06-10 00:00:00 18.4 4 Noroeste 12 Norte 0 936.7 1.6 29
2019-06-09 23:00:00 19.8 8 Noroeste 20 Noroeste 0 936.7 1.6 27
2019-06-09 22:00:00 21.9 6 Norte 24 Noroeste 0 935.6 1 26
2019-06-09 21:00:00 24.1 0 Calma 26 Oeste 0 935.1 0.6 23
2019-06-09 20:00:00 25.5 5 Oeste 32 Oeste 0 935.1 0.3 23
2019-06-09 19:00:00 26.3 6 Oeste 29 Oeste 0 934.6 -0.8 23
2019-06-09 18:00:00 26.6 5 Oeste 34 Oeste 0 934.5 -1.3 24
2019-06-09 17:00:00 26.4 12 Oeste 32 Sudoeste 0 934.8 -2.1 26
2019-06-09 16:00:00 26.3 9 Oeste 30 Oeste 0 935.4 -1.9 28
2019-06-09 15:00:00 25.6 8 Sudoeste 31 Sudoeste 0 935.8 -1.9 30
2019-06-09 14:00:00 24.5 5 Noroeste 23 Noroeste 0 936.9 -1 31
2019-06-09 13:00:00 22.9 8 Noroeste 19 Noroeste 0 937.3 -0.7 34
2019-06-09 12:00:00 21.7 4 Norte 17 Noroeste 0 937.7 -0.1 40
2019-06-09 11:00:00 19.8 3 Noroeste 13 Sudoeste 0 937.9 0.5 47
2019-06-09 10:00:00 17.6 3 Sudoeste 8 Sudoeste 0 938 0.7 58
2019-06-09 09:00:00 16 4 Sur 10 Sur 0 937.8 0.5 66
2019-06-09 08:00:00 14 0 Calma 6 Sur 0 937.4 0.3 70
2019-06-09 07:00:00 13.7 0 Calma 13 Sur 0 937.3 0.5 67
2019-06-09 06:00:00 14.7 5 Sudeste 18 Sudeste 0 937.3 -0.3 64
2019-06-09 05:00:00 15.6 4 Sudeste 18 Sur 0 937.1 -0.3 61
2019-06-09 04:00:00 15.7 3 Sudeste 21 Sudeste 0 936.8 -1.1 60
2019-06-09 03:00:00 15.9 9 Sudeste 25 Sudeste 0 937.6 -0.5 58
2019-06-09 02:00:00 16.1 9 Sudeste 30 Sudeste 0 937.4 -0.8 57
2019-06-09 01:00:00 16.6 12 Sudeste 32 Sur 0 937.9 0.5 55
2019-06-09 00:00:00 17.5 13 Sudeste 40 Sudeste 0 938.1 1.2 54
2019-06-08 23:00:00 18.4 13 Sudeste 38 Sur 0 938.2 1.8 53
2019-06-08 22:00:00 19.6 11 Sudeste 40 Sudeste 0 937.4 1.1 50
2019-06-08 21:00:00 21.5 11 Sudeste 40 Sudeste 0 936.9 0.3 46
2019-06-08 20:00:00 24.2 9 Sudeste 39 Sur 0 936.4 -0.3 42
2019-06-08 19:00:00 25.6 12 Sudeste 43 Sudeste 0 936.3 -1 41
2019-06-08 18:00:00 26.1 12 Sudeste 40 Sur 0 936.6 -1.5 39
2019-06-08 17:00:00 27.4 9 Sudeste 44 Sur 0 936.7 -2 37
2019-06-08 16:00:00 27.7 5 Sudeste 31 Sur 0 937.3 -2 37
2019-06-08 15:00:00 26.8 8 Sudeste 36 Sudoeste 0 938.1 -1.5 38
2019-06-08 14:00:00 25.4 11 Sudeste 35 Sudeste 0 938.7 -1.2 42
2019-06-08 13:00:00 23.8 11 Sudeste 39 Sudeste 0 939.3 -0.4 46
2019-06-08 12:00:00 21.5 13 Sudeste 39 Sudeste 0 939.6 0.2 50
2019-06-08 11:00:00 20.2 15 Sudeste 40 Sudeste 0 939.9 0.5 54
2019-06-08 10:00:00 18.3 13 Sudeste 40 Sudeste 0 939.7 0.3 58
2019-06-08 09:00:00 16.8 13 Sudeste 40 Sudeste 0 939.4 -0.1 58
2019-06-08 08:00:00 15.2 6 Sudeste 23 Sudeste 0 939.4 -0.5 52
2019-06-08 07:00:00 14.6 5 Sudeste 37 Sudeste 0 939.4 -0.2 47
2019-06-08 06:00:00 14.1 3 Sudeste 16 Sudeste 0 939.5 -0.3 40
2019-06-08 05:00:00 11.9 3 Norte 7 Este 0 939.9 0 36
2019-06-08 04:00:00 11.8 3 Nordeste 8 Este 0 939.6 -0.2 35
2019-06-08 03:00:00 11.5 4 Nordeste 8 Nordeste 0 939.8 0 34
2019-06-08 02:00:00 13.2 2 Nordeste 10 Este 0 939.9 0.3 32
2019-06-08 01:00:00 14.8 4 Este 8 Este 0 939.8 1.1 30
2019-06-08 00:00:00 14.8 4 Nordeste 10 Nordeste 0 939.8 1.3 28
2019-06-07 23:00:00 16.6 5 Nordeste 11 Nordeste 0 939.6 1.6 27
2019-06-07 22:00:00 18.7 4 Nordeste 12 Nordeste 0 938.7 0.9 25
2019-06-07 21:00:00 20.6 7 Nordeste 16 Norte 0 938.5 0.9 25
2019-06-07 20:00:00 22.1 3 Nordeste 19 Norte 0 938 0.4 25
2019-06-07 19:00:00 22.3 4 Norte 19 Norte 0 937.8 0 25
2019-06-07 18:00:00 21.7 8 Nordeste 18 Noroeste 0 937.6 0 26
2019-06-07 17:00:00 21.6 6 Sudoeste 23 Oeste 0 937.6 0.1 27
2019-06-07 16:00:00 20.8 6 Norte 27 Noroeste 0 937.8 0.5 28
2019-06-07 15:00:00 18.5 6 Oeste 24 Noroeste 0 937.6 0.6 33
2019-06-07 14:00:00 17.8 2 Noroeste 25 Noroeste 0 937.5 0.4 37
2019-06-07 13:00:00 15.7 9 Norte 30 Noroeste 0 937.3 0.8 41
2019-06-07 12:00:00 14.8 9 Noroeste 28 Noroeste 0 937 1.3 43
2019-06-07 11:00:00 13.2 13 Noroeste 30 Noroeste 0 937.1 2.2 51
2019-06-07 10:00:00 12.4 9 Norte 29 Noroeste 0 936.5 3 63
2019-06-07 09:00:00 12.2 6 Norte 22 Noroeste 0 935.7 3.4 66
2019-06-07 08:00:00 12.4 5 Norte 16 Norte 0 934.9 2.9 83
2019-06-07 07:00:00 13.5 6 Norte 23 Noroeste 0 933.5 1.8 83
2019-06-07 06:00:00 13.6 0 Calma 12 Sudoeste 0 932.3 0.8 51
2019-06-07 05:00:00 13.5 6 Sudoeste 16 Sudoeste 0 932 0.3 51
2019-06-07 04:00:00 14 9 Sudoeste 26 Sudoeste 0 931.7 0 52
2019-06-07 03:00:00 14.7 10 Sudoeste 14 Oeste 0 931.5 0.2 45
2019-06-07 02:00:00 15.8 5 Sudoeste 11 Sudoeste 0 931.7 1.2 40
2019-06-07 01:00:00 16.4 4 Oeste 17 Sudoeste 0 931.7 1.5 37
2019-06-07 00:00:00 18.4 12 Sudoeste 20 Oeste 0 931.3 1.6 34
2019-06-06 23:00:00 19.5 13 Sudoeste 27 Sudoeste 0 930.5 0.9 33
2019-06-06 22:00:00 21.1 17 Sudoeste 31 Sudoeste 0 930.2 0.6 31
2019-06-06 21:00:00 22.8 22 Sudoeste 39 Oeste 0 929.7 -0.5 30
2019-06-06 20:00:00 24.1 19 Oeste 37 Oeste 0 929.6 -1.2 28
2019-06-06 19:00:00 24.6 19 Sudoeste 41 Oeste 0 929.6 -2.4 28
2019-06-06 18:00:00 24.6 20 Sudoeste 40 Sudoeste 0 930.2 -2.2 28
2019-06-06 17:00:00 24.4 15 Sudoeste 42 Oeste 0 930.8 -2.6 31
2019-06-06 16:00:00 23.2 17 Sudoeste 44 Sudoeste 0 932 -2.2 33
2019-06-06 15:00:00 22.4 11 Sudoeste 39 Sudoeste 0 932.4 -2 35
2019-06-06 14:00:00 21.6 11 Sudoeste 35 Oeste 0 933.4 -1.3 38
2019-06-06 13:00:00 19.4 12 Sudoeste 31 Sudoeste 0 934.2 -0.7 42
2019-06-06 12:00:00 18.3 9 Sudoeste 23 Sudoeste 0 934.4 -0.6 44
2019-06-06 11:00:00 16.5 5 Sur 14 Sudeste 0 934.7 -0.3 47
2019-06-06 10:00:00 14.4 4 Sur 12 Sudeste 0 934.9 0.1 50
2019-06-06 09:00:00 12.1 5 Sur 10 Sudeste 0 935 0.5 52
2019-06-06 08:00:00 10.5 0 Calma 5 Noroeste 0 935 0 54
2019-06-06 07:00:00 9.8 0 Calma 3 Noroeste 0 934.8 0 53
2019-06-06 06:00:00 10.4 0 Calma 3 Noroeste 0 934.5 -0.3 52
2019-06-06 05:00:00 10.7 0 Calma 7 Noroeste 0 935 0 49
2019-06-06 04:00:00 11.3 0 Calma 4 Sudoeste 0 934.8 0.1 47
2019-06-06 03:00:00 12 0 Calma 6 Sudoeste 0 934.8 0.1 46
2019-06-06 02:00:00 12.2 3 Sudoeste 7 Sudoeste 0 935 0.8 45
2019-06-06 01:00:00 12.9 2 Oeste 9 Oeste 0 934.7 1.3 42
2019-06-06 00:00:00 14.1 3 Oeste 11 Noroeste 0 934.7 1.5 40
2019-06-05 23:00:00 16 6 Noroeste 11 Noroeste 0 934.2 1.1 37
2019-06-05 22:00:00 17.6 4 Noroeste 18 Noroeste 0 933.4 0.4 36
2019-06-05 21:00:00 19.1 9 Noroeste 22 Noroeste 0 933.2 0.5 34
2019-06-05 20:00:00 20 10 Noroeste 24 Noroeste 0 933.1 -0.2 33
2019-06-05 19:00:00 19.7 9 Noroeste 29 Noroeste 0 933 -0.6 33
2019-06-05 18:00:00 20.6 8 Noroeste 29 Noroeste 0 932.7 -1.1 34
2019-06-05 17:00:00 20.4 9 Noroeste 32 Noroeste 0 933.3 -0.1 35
2019-06-05 16:00:00 19.7 11 Noroeste 40 Noroeste 0 933.6 0.6 37
2019-06-05 15:00:00 18.6 10 Noroeste 41 Noroeste 0 933.8 0.7 40
2019-06-05 14:00:00 18.6 13 Norte 41 Noroeste 0 933.4 0.7 43
2019-06-05 13:00:00 17.2 14 Noroeste 40 Noroeste 0 933 0.2 47
2019-06-05 12:00:00 16 18 Noroeste 41 Noroeste 0 933.1 1.3 52
2019-06-05 11:00:00 14.9 11 Noroeste 33 Noroeste 0 932.7 1.1 56
2019-06-05 10:00:00 13.3 9 Noroeste 32 Noroeste 0 932.8 2.2 60
2019-06-05 09:00:00 12 6 Sudoeste 28 Noroeste 0 931.8 1.6 64
2019-06-05 08:00:00 11.5 8 Oeste 25 Sudoeste 0 931.6 1.7 61
2019-06-05 07:00:00 12.9 2 Oeste 40 Oeste 0 930.6 0.6 61
2019-06-05 06:00:00 15 14 Oeste 30 Oeste 0 930.2 0.1 60
2019-06-05 05:00:00 16.4 5 Oeste 30 Sudoeste 0 929.9 -0.2 61
2019-06-05 04:00:00 17.3 9 Noroeste 21 Noroeste 0 930 -0.2 61
2019-06-05 03:00:00 18.6 8 Noroeste 22 Norte 0 930.1 0 58
2019-06-05 02:00:00 19.1 6 Noroeste 16 Noroeste 0 930.1 0.1 53
2019-06-05 01:00:00 19.2 7 Noroeste 17 Noroeste 0 930.2 0.9 47
2019-06-05 00:00:00 20.6 4 Norte 15 Noroeste 0 930.1 0.9 44
2019-06-04 23:00:00 21.9 4 Norte 29 Noroeste 0 930 0.7 41
2019-06-04 22:00:00 23.5 13 Noroeste 31 Noroeste 0 929.3 -0.1 35
2019-06-04 21:00:00 25.7 13 Noroeste 31 Noroeste 0 929.2 -0.5 34
2019-06-04 20:00:00 27.6 6 Oeste 31 Sudoeste 0 929.3 -1 33
2019-06-04 19:00:00 28 8 Oeste 44 Sudoeste 0 929.4 -1.6 33
2019-06-04 18:00:00 28.5 15 Oeste 39 Sudoeste 0 929.7 -2.2 32
2019-06-04 17:00:00 29 14 Oeste 46 Oeste 0 930.3 -2.3 31
2019-06-04 16:00:00 28.5 23 Sudoeste 48 Sudoeste 0 931 -2.5 30
2019-06-04 15:00:00 27.8 12 Oeste 42 Oeste 0 931.9 -1.5 31
2019-06-04 14:00:00 27.6 18 Sudoeste 43 Sudoeste 0 932.6 -0.9 32
2019-06-04 13:00:00 27 18 Oeste 39 Sudoeste 0 933.5 -0.5 34
2019-06-04 12:00:00 26.4 15 Sudoeste 35 Oeste 0 933.4 -0.7 37
2019-06-04 11:00:00 24.1 14 Sudoeste 24 Oeste 0 933.5 -0.4 42
2019-06-04 10:00:00 21.4 5 Sudoeste 12 Sur 0 934 0.3 42
2019-06-04 09:00:00 18.3 6 Sur 11 Sur 0 934.1 0.2 42
2019-06-04 08:00:00 17.1 3 Sur 8 Sur 0 933.9 0 41
2019-06-04 07:00:00 16.5 3 Sur 8 Sur 0 933.7 -0.4 41
2019-06-04 06:00:00 16.7 2 Sur 5 Sur 0 933.9 -0.4 39
2019-06-04 05:00:00 16.7 0 Calma 3 Oeste 0 933.9 -0.5 36
2019-06-04 04:00:00 18.6 0 Calma 3 Nordeste 0 934.1 -0.9 34
2019-06-04 03:00:00 19.4 0 Calma 4 Nordeste 0 934.3 -0.3 32
2019-06-04 02:00:00 19.6 4 Nordeste 10 Nordeste 0 934.4 -0.6 30
2019-06-04 01:00:00 22.2 0 Calma 14 Sudoeste 0 935 0.7 28
2019-06-04 00:00:00 23.4 0 Calma 5 Este 0 934.6 0.3 27
2019-06-03 23:00:00 26.2 2 Nordeste 9 Norte 0 935 0.4 23
2019-06-03 22:00:00 27.5 2 Norte 23 Noroeste 0 934.3 -0.4 23
2019-06-03 21:00:00 29.8 11 Noroeste 23 Oeste 0 934.3 -0.5 22
2019-06-03 20:00:00 31.8 4 Noroeste 28 Sudoeste 0 934.6 -0.6 22
2019-06-03 19:00:00 32.8 6 Oeste 27 Oeste 0 934.7 -1.5 22
2019-06-03 18:00:00 32.2 14 Sudoeste 34 Sudoeste 0 934.8 -2.2 23
2019-06-03 17:00:00 33.4 7 Sudoeste 31 Oeste 0 935.2 -2.2 23
2019-06-03 16:00:00 30.5 5 Noroeste 27 Noroeste 0 936.2 -1.5 24
2019-06-03 15:00:00 31.4 9 Noroeste 28 Noroeste 0 937 -1 24
2019-06-03 14:00:00 31.1 4 Oeste 18 Sudoeste 0 937.4 -0.8 25
2019-06-03 13:00:00 29.7 3 Oeste 16 Oeste 0 937.7 -0.9 27
2019-06-03 12:00:00 27.8 4 Sudoeste 14 Sudoeste 0 938 -0.1 31
2019-06-03 11:00:00 24.9 5 Sudoeste 12 Sudoeste 0 938.2 0.4 37
2019-06-03 10:00:00 21.6 5 Sur 15 Sur 0 938.6 1.2 40
2019-06-03 09:00:00 19.6 6 Sur 15 Sudeste 0 938.1 0.8 43
2019-06-03 08:00:00 18.1 5 Sudeste 16 Sur 0 937.8 0.7 43
2019-06-03 07:00:00 17.8 6 Sudeste 17 Sur 0 937.4 0.2 43
2019-06-03 06:00:00 18.3 5 Sudeste 18 Sudeste 0 937.3 -0.2 42
2019-06-03 05:00:00 19 4 Sudeste 20 Sudeste 0 937.1 -0.5 40
2019-06-03 04:00:00 19.5 9 Sudeste 22 Sur 0 937.2 -0.7 37
2019-06-03 03:00:00 20.9 5 Sudeste 18 Sudeste 0 937.5 -0.2 35
2019-06-03 02:00:00 23.3 5 Sur 17 Sur 0 937.6 0.1 31
2019-06-03 01:00:00 24.1 10 Sudoeste 19 Noroeste 0 937.9 1 30
2019-06-03 00:00:00 25.1 4 Sur 19 Sur 0 937.7 1.5 28
2019-06-02 23:00:00 27.4 6 Sur 11 Sur 0 937.5 1.2 26
2019-06-02 22:00:00 28 3 Sur 10 Sur 0 936.9 0.5 25
2019-06-02 21:00:00 30 4 Sudoeste 14 Sur 0 936.2 -1 24
2019-06-02 20:00:00 32.6 6 Sudoeste 14 Sudoeste 0 936.3 -0.9 23
2019-06-02 19:00:00 32.5 4 Noroeste 18 Sudoeste 0 936.4 -1.5 23
2019-06-02 18:00:00 32.5 3 Oeste 18 Nordeste 0 937.2 -1 23
2019-06-02 17:00:00 32.6 3 Oeste 21 Noroeste 0 937.2 -1.5 23
2019-06-02 16:00:00 32.4 2 Norte 17 Sudoeste 0 937.9 -1.9 24
2019-06-02 15:00:00 31.2 2 Norte 15 Norte 0 938.2 -1.8 26
2019-06-02 14:00:00 29.9 6 Sudoeste 17 Sudoeste 0 938.7 -1.4 27
2019-06-02 13:00:00 28.7 5 Sudeste 17 Sur 0 939.8 -0.4 31
2019-06-02 12:00:00 26.2 4 Sur 16 Sur 0 940 0 35
2019-06-02 11:00:00 22.8 7 Sur 20 Sudeste 0 940.1 0.4 39
2019-06-02 10:00:00 19.9 6 Sudeste 20 Sudeste 0 940.2 0.7 42
2019-06-02 09:00:00 17.7 9 Sudeste 21 Sur 0 940 0.7 44
2019-06-02 08:00:00 16.1 6 Sudeste 22 Sudeste 0 939.7 0.7 45
2019-06-02 07:00:00 15.7 6 Sudeste 21 Sudeste 0 939.5 0.1 44
2019-06-02 06:00:00 16.2 6 Sudeste 26 Sudeste 0 939.3 -0.6 43
2019-06-02 05:00:00 16.6 9 Sudeste 24 Sur 0 939 -0.6 43
2019-06-02 04:00:00 17.4 9 Sudeste 28 Sur 0 939.4 -0.3 42
2019-06-02 03:00:00 18.2 8 Sudeste 27 Sudeste 0 939.9 0.3 42
2019-06-02 02:00:00 19.2 9 Sudeste 25 Sur 0 939.6 0.4 40
2019-06-02 01:00:00 21.2 6 Sudeste 19 Sudeste 0 939.7 1.2 35
2019-06-02 00:00:00 22.6 7 Sudeste 18 Sudeste 0 939.6 0.9 33
2019-06-01 23:00:00 24.6 6 Sur 14 Sur 0 939.2 0.7 30
2019-06-01 22:00:00 26.2 6 Sur 18 Sur 0 938.5 -0.1 28
2019-06-01 21:00:00 28.1 9 Sur 22 Sudeste 0 938.7 -0.1 26
2019-06-01 20:00:00 29.7 8 Sur 24 Sudoeste 0 938.5 -0.8 26
2019-06-01 19:00:00 30.7 6 Sur 21 Sur 0 938.6 -1.5 26
2019-06-01 18:00:00 30.7 4 Sur 21 Sudeste 0 938.8 -1.8 27
2019-06-01 17:00:00 32.5 3 Sudeste 23 Este 0 939.3 -1.7 27
2019-06-01 16:00:00 30.4 0 Calma 17 Sur 0 940.1 -1.4 29
2019-06-01 15:00:00 29.8 3 Sur 19 Sur 0 940.6 -1.5 30
2019-06-01 14:00:00 29.1 4 Sudeste 19 Sur 0 941 -1.2 33
2019-06-01 13:00:00 27.6 7 Sur 22 Sur 0 941.5 -0.5 36
2019-06-01 12:00:00 25.5 8 Sur 23 Sur 0 942.1 0.1 40
2019-06-01 11:00:00 22.7 9 Sur 24 Sudeste 0 942.2 0.3 47
2019-06-01 10:00:00 20.3 6 Sudeste 26 Sudeste 0 942 0.2 53
2019-06-01 09:00:00 17.4 9 Sudeste 32 Sudeste 0 942 0.4 56
2019-06-01 08:00:00 16 5 Sudeste 23 Sudeste 0 941.9 0.8 59
2019-06-01 07:00:00 15.5 6 Sudeste 25 Sudeste 0 941.8 0.5 58
2019-06-01 06:00:00 15.7 5 Sudeste 24 Sudeste 0 941.6 0 57
2019-06-01 05:00:00 16.2 7 Sudeste 26 Sudeste 0 941.1 -0.4 57
2019-06-01 04:00:00 16.4 8 Sudeste 31 Sudeste 0 941.3 -0.5 56
2019-06-01 03:00:00 17.2 9 Sudeste 30 Sudeste 0 941.6 0.1 54
2019-06-01 02:00:00 18.1 6 Sudeste 30 Sudeste 0 941.5 0.5 50
2019-06-01 01:00:00 19.4 6 Sudeste 22 Sur 0 941.8 1.1 42
2019-06-01 00:00:00 21.6 5 Sudeste 13 Sudeste 0 941.5 0.7 34
2019-05-31 23:00:00 23.1 5 Sur 14 Sudeste 0 941 0.5 31
2019-05-31 22:00:00 24.6 5 Sur 16 Sudeste 0 940.7 -0.1 30
2019-05-31 21:00:00 26.3 5 Sur 20 Sudeste 0 940.8 -0.2 28
2019-05-31 20:00:00 27.9 7 Sur 19 Sudeste 0 940.5 -1.1 26
2019-05-31 19:00:00 29 5 Sudeste 20 Sudeste 0 940.8 -1 26
2019-05-31 18:00:00 29.2 5 Sudeste 24 Sudeste 0 941 -1.8 26
2019-05-31 17:00:00 30.1 3 Sudeste 20 Sur 0 941.6 -1.1 26
2019-05-31 16:00:00 29.4 3 Sudeste 21 Sur 0 941.8 -1.7 27
2019-05-31 15:00:00 28.7 3 Este 18 Sudeste 0 942.8 -0.9 30
2019-05-31 14:00:00 27.5 5 Sur 20 Sur 0 942.7 -1.3 32
2019-05-31 13:00:00 26.2 4 Sudeste 20 Sudeste 0 943.5 -0.1 35
2019-05-31 12:00:00 24.7 5 Sudeste 18 Sudeste 0 943.7 -0.1 39
2019-05-31 11:00:00 22.2 7 Sudeste 23 Sur 0 944 0.3 45
2019-05-31 10:00:00 20 5 Sudeste 20 Sudeste 0 943.6 0.3 53
2019-05-31 09:00:00 17.6 7 Sudeste 21 Sudeste 0 943.8 0.6 58
2019-05-31 08:00:00 15.8 5 Sudeste 23 Sudeste 0 943.7 0.6 61
2019-05-31 07:00:00 14.9 3 Sudeste 18 Sudeste 0 943.3 0 61
2019-05-31 06:00:00 15.4 5 Sudeste 18 Sudeste 0 943.2 -0.4 60
2019-05-31 05:00:00 15.8 2 Este 22 Sudoeste 0 943.1 -0.5 58
2019-05-31 04:00:00 16.2 5 Sudeste 22 Sudeste 0 943.3 -0.4 57
2019-05-31 03:00:00 17.3 4 Sudeste 21 Sudeste 0 943.6 0.6 52
2019-05-31 02:00:00 18.3 4 Sudeste 14 Sudeste 0 943.6 1 45
2019-05-31 01:00:00 19.4 3 Sudeste 14 Sudeste 0 943.7 1.5 39
2019-05-31 00:00:00 20.7 5 Sudeste 12 Sudeste 0 943 1.2 36
2019-05-30 23:00:00 22.2 3 Sur 13 Sudeste 0 942.6 0.6 34
2019-05-30 22:00:00 23.7 6 Sur 20 Sudoeste 0 942.2 0.5 32
2019-05-30 21:00:00 25.4 6 Sur 20 Sudoeste 0 941.8 -0.2 30
2019-05-30 20:00:00 27.5 5 Sur 16 Sudoeste 0 942 -0.5 29
2019-05-30 19:00:00 28.4 5 Sur 25 Sudoeste 0 941.7 -1.4 28
2019-05-30 18:00:00 27.6 6 Sur 19 Sudeste 0 942 -1.5 28
2019-05-30 17:00:00 28.9 5 Sur 20 Sudeste 0 942.5 -1.3 29
2019-05-30 16:00:00 28.3 0 Calma 18 Sudeste 0 943.1 -1 30
2019-05-30 15:00:00 26.8 5 Sudeste 17 Sudeste 0 943.5 -1 33
2019-05-30 14:00:00 24.8 3 Sudeste 16 Sudeste 0 943.8 -0.8 35
2019-05-30 13:00:00 23.5 4 Sur 18 Sudeste 0 944.1 -0.7 40
2019-05-30 12:00:00 21.4 3 Sur 16 Sudeste 0 944.5 -0.2 43
2019-05-30 11:00:00 18.9 4 Sudeste 16 Sudeste 0 944.6 0 49
2019-05-30 10:00:00 16.7 3 Nordeste 10 Nordeste 0 944.8 0.8 56
2019-05-30 09:00:00 13.8 0 Calma 5 Sudoeste 0 944.7 1.1 61
2019-05-30 08:00:00 11.8 0 Calma 6 Nordeste 0 944.6 1.3 64
2019-05-30 07:00:00 10.9 4 Nordeste 10 Nordeste 0 944 0.8 64
2019-05-30 06:00:00 11 5 Nordeste 13 Nordeste 0 943.6 0.2 62
2019-05-30 05:00:00 12.5 5 Nordeste 15 Nordeste 0 943.3 0 58
2019-05-30 04:00:00 13.7 5 Nordeste 17 Nordeste 0 943.2 0.3 54
2019-05-30 03:00:00 15.2 6 Nordeste 16 Nordeste 0 943.4 0.6 50
2019-05-30 02:00:00 15.8 8 Nordeste 22 Nordeste 0 943.3 1.1 46
2019-05-30 01:00:00 17.8 9 Nordeste 22 Nordeste 0 942.9 1.3 42
2019-05-30 00:00:00 19.4 10 Nordeste 24 Nordeste 0 942.8 1.8 38
2019-05-29 23:00:00 19.7 6 Nordeste 19 Nordeste 0 942.2 1.9 37
2019-05-29 22:00:00 21.5 7 Nordeste 23 Nordeste 0 941.6 1.5 36
2019-05-29 21:00:00 23 9 Nordeste 31 Nordeste 0 941 0.6 34
2019-05-29 20:00:00 24.2 15 Nordeste 37 Nordeste 0 940.3 0.1 33
2019-05-29 19:00:00 24.8 16 Nordeste 44 Nordeste 0 940.1 -0.8 32
2019-05-29 18:00:00 24.9 15 Nordeste 35 Nordeste 0 940.4 -0.8 32
2019-05-29 17:00:00 24.7 13 Nordeste 28 Nordeste 0 940.2 -1.2 34
2019-05-29 16:00:00 24.1 11 Nordeste 30 Nordeste 0 940.9 -0.8 35
2019-05-29 15:00:00 23 10 Nordeste 35 Nordeste 0 941.2 -0.6 35
2019-05-29 14:00:00 21.3 12 Nordeste 39 Nordeste 0 941.4 -0.7 36
2019-05-29 13:00:00 20.5 12 Nordeste 33 Nordeste 0 941.7 -0.3 37
2019-05-29 12:00:00 18.3 13 Nordeste 28 Nordeste 0 941.8 0.5 40
2019-05-29 11:00:00 16.6 13 Nordeste 36 Nordeste 0 942.1 0.8 44
2019-05-29 10:00:00 15.3 15 Nordeste 36 Nordeste 0 942 1.1 48
2019-05-29 09:00:00 12.7 16 Nordeste 38 Este 0 941.3 0.9 51
2019-05-29 08:00:00 10.7 10 Nordeste 31 Nordeste 0 941.3 1.1 54
2019-05-29 07:00:00 10.1 8 Nordeste 25 Nordeste 0 940.9 0.6 53
2019-05-29 06:00:00 10.7 11 Nordeste 21 Nordeste 0 940.4 0.4 53
2019-05-29 05:00:00 11.6 3 Nordeste 10 Nordeste 0 940.2 0.7 53
2019-05-29 04:00:00 12.2 3 Nordeste 18 Nordeste 0 940.3 0.6 51
2019-05-29 03:00:00 13.5 8 Nordeste 18 Nordeste 0 940 0.9 48
2019-05-29 02:00:00 14.6 6 Nordeste 17 Sudeste 0 939.5 1.3 46
2019-05-29 01:00:00 15.9 7 Nordeste 25 Nordeste 0 939.7 2.4 44
2019-05-29 00:00:00 17.3 12 Nordeste 32 Nordeste 0 939.1 3.1 40
2019-05-28 23:00:00 18.9 14 Nordeste 29 Nordeste 0 938.2 2.5 35
2019-05-28 22:00:00 21.3 13 Nordeste 31 Nordeste 0 937.3 2 27
2019-05-28 21:00:00 24 11 Nordeste 26 Nordeste 0 936 0.9 25
2019-05-28 20:00:00 25 12 Nordeste 29 Nordeste 0 935.7 0.7 24
2019-05-28 19:00:00 26.3 9 Nordeste 28 Nordeste 0 935.3 0 23
2019-05-28 18:00:00 26.1 11 Nordeste 32 Norte 0 935.1 -0.2 23
2019-05-28 17:00:00 26 10 Nordeste 33 Nordeste 0 935 -0.8 25
2019-05-28 16:00:00 25.6 9 Norte 26 Nordeste 0 935.3 -0.7 27
2019-05-28 15:00:00 24.3 9 Nordeste 28 Nordeste 0 935.3 -0.8 31
2019-05-28 14:00:00 24.2 10 Nordeste 24 Nordeste 0 935.8 0.2 34
2019-05-28 13:00:00 22.3 7 Nordeste 22 Nordeste 0 936 0.1 41
2019-05-28 12:00:00 22 9 Nordeste 21 Norte 0 936.1 0.9 42
2019-05-28 11:00:00 20.8 9 Nordeste 20 Nordeste 0 935.6 0.5 48
2019-05-28 10:00:00 18.5 8 Nordeste 18 Nordeste 0 935.9 1.5 61
2019-05-28 09:00:00 15 7 Nordeste 21 Nordeste 0 935.2 1 69
2019-05-28 08:00:00 13 9 Nordeste 18 Nordeste 0 935.1 1 74
2019-05-28 07:00:00 12.5 6 Nordeste 13 Nordeste 0 934.4 -0.1 73
2019-05-28 06:00:00 13.4 5 Nordeste 10 Nordeste 0 934.2 0.2 69
2019-05-28 05:00:00 14.2 4 Nordeste 10 Nordeste 0 934.1 -0.2 64
2019-05-28 04:00:00 16.1 3 Nordeste 9 Nordeste 0 934.5 0.9 58
2019-05-28 03:00:00 17.9 4 Nordeste 11 Nordeste 0 934 0.9 54
2019-05-28 02:00:00 18.7 4 Este 17 Nordeste 0 934.3 1.4 52
2019-05-28 01:00:00 19.3 8 Nordeste 24 Nordeste 0 933.6 1.1 49
2019-05-28 00:00:00 19.7 7 Nordeste 27 Nordeste 0 933.1 1.7 44
2019-05-27 23:00:00 22.1 9 Nordeste 17 Nordeste 0 932.9 1.6 36
2019-05-27 22:00:00 23.7 6 Nordeste 21 Nordeste 0 932.5 1.2 34
2019-05-27 21:00:00 26.2 6 Norte 18 Noroeste 0 931.4 -0.8 30
2019-05-27 20:00:00 27.3 6 Nordeste 22 Nordeste 0 931.3 -1.3 29
2019-05-27 19:00:00 27.7 4 Norte 30 Noroeste 0 931.3 -1.5 30
2019-05-27 18:00:00 27.6 5 Norte 34 Noroeste 0 932.2 -1.2 31
2019-05-27 17:00:00 27.2 8 Norte 26 Nordeste 0 932.6 -1.6 32
2019-05-27 16:00:00 26.4 8 Norte 27 Noroeste 0 932.8 -1.8 34
2019-05-27 15:00:00 26.1 6 Noroeste 30 Noroeste 0 933.4 -1.6 35
2019-05-27 14:00:00 25.6 7 Norte 21 Norte 0 934.2 -1.7 37
2019-05-27 13:00:00 23.7 6 Nordeste 22 Noroeste 0 934.6 -1.1 39
2019-05-27 12:00:00 21.9 3 Norte 17 Nordeste 0 935 -1.5 42
2019-05-27 11:00:00 20.1 5 Nordeste 17 Nordeste 0 935.9 0.2 47
2019-05-27 10:00:00 17 3 Nordeste 10 Nordeste 0 935.7 0.2 52
2019-05-27 09:00:00 14.4 4 Nordeste 10 Nordeste 0 936.5 1 56
2019-05-27 08:00:00 11.9 6 Nordeste 12 Nordeste 0 935.7 0.1 57
2019-05-27 07:00:00 11.9 4 Nordeste 9 Nordeste 0 935.5 -0.2 55
2019-05-27 06:00:00 11.7 3 Nordeste 10 Nordeste 0 935.5 -0.6 52
2019-05-27 05:00:00 13.2 2 Nordeste 6 Nordeste 0 935.6 -1.2 47
2019-05-27 04:00:00 14.6 3 Nordeste 5 Nordeste 0 935.7 -1 45
2019-05-27 03:00:00 15 0 Calma 6 Nordeste 0 936.1 -0.7 43
2019-05-27 02:00:00 15.9 0 Calma 11 Nordeste 0 936.8 0.6 40
2019-05-27 01:00:00 16.6 8 Nordeste 14 Nordeste 0 936.7 1 37
2019-05-27 00:00:00 18.1 4 Nordeste 11 Nordeste 0 936.8 1.5 34
2019-05-26 23:00:00 19.9 6 Nordeste 17 Nordeste 0 936.2 0.3 32
2019-05-26 22:00:00 21.6 7 Nordeste 16 Nordeste 0 935.7 0 30
2019-05-26 21:00:00 23.5 6 Nordeste 24 Nordeste 0 935.3 -0.2 30
2019-05-26 20:00:00 24.8 9 Nordeste 29 Nordeste 0 935.9 -0.7 29
2019-05-26 19:00:00 25.5 13 Nordeste 35 Nordeste 0 935.7 -1.2 27
2019-05-26 18:00:00 25.2 11 Nordeste 28 Nordeste 0 935.5 -1.8 30
2019-05-26 17:00:00 24.6 14 Nordeste 33 Nordeste 0 936.6 -1 30
2019-05-26 16:00:00 23.7 13 Nordeste 37 Nordeste 0 936.9 -1 31
2019-05-26 15:00:00 22.9 15 Nordeste 39 Nordeste 0 937.3 -1.3 33
2019-05-26 14:00:00 21.4 17 Nordeste 35 Nordeste 0 937.6 -0.9 34
2019-05-26 13:00:00 20.2 15 Nordeste 32 Nordeste 0 937.9 -0.9 36
2019-05-26 12:00:00 18.8 17 Nordeste 34 Norte 0 938.6 -0.2 41
2019-05-26 11:00:00 16.8 14 Nordeste 31 Nordeste 0 938.5 -0.4 47
2019-05-26 10:00:00 14.3 10 Nordeste 23 Nordeste 0 938.8 0.1 61
2019-05-26 09:00:00 12.1 8 Nordeste 24 Nordeste 0 938.8 0.7 69
2019-05-26 08:00:00 10.5 11 Nordeste 24 Nordeste 0 938.9 0.2 73
2019-05-26 07:00:00 9.9 12 Nordeste 22 Nordeste 0 938.7 0.3 73
2019-05-26 06:00:00 10.6 9 Nordeste 16 Nordeste 0 938.1 -0.6 71
2019-05-26 05:00:00 11.5 7 Nordeste 15 Nordeste 0 938.7 0.1 68
2019-05-26 04:00:00 12.2 5 Nordeste 13 Nordeste 0 938.4 -0.2 64
2019-05-26 03:00:00 13.2 7 Nordeste 14 Nordeste 0 938.7 0.1 59
2019-05-26 02:00:00 14.2 6 Nordeste 14 Nordeste 0 938.6 0 56
2019-05-26 01:00:00 15 9 Nordeste 17 Nordeste 0 938.6 0.9 52
2019-05-26 00:00:00 16.2 6 Nordeste 16 Sudeste 0 938.6 1.3 48
2019-05-25 23:00:00 18.3 6 Nordeste 14 Nordeste 0 938.6 1.6 42
2019-05-25 22:00:00 19.8 6 Nordeste 22 Nordeste 0 937.7 0.5 38
2019-05-25 21:00:00 21.6 10 Nordeste 26 Nordeste 0 937.3 0.4 36
2019-05-25 20:00:00 23.1 9 Nordeste 27 Nordeste 0 937 0 34
2019-05-25 19:00:00 23.7 10 Nordeste 24 Norte 0 937.2 -0.2 33
2019-05-25 18:00:00 23.7 10 Nordeste 23 Norte 0 936.9 -0.7 34
2019-05-25 17:00:00 23.5 7 Nordeste 23 Nordeste 0 937 -1.1 35
2019-05-25 16:00:00 22.5 8 Nordeste 25 Nordeste 0 937.4 -1 37
2019-05-25 15:00:00 21.7 7 Nordeste 28 Norte 0 937.6 -0.9 41
2019-05-25 14:00:00 20.4 9 Nordeste 27 Nordeste 0 938.1 -0.3 43
2019-05-25 13:00:00 19.2 15 Nordeste 31 Nordeste 0 938.4 0 46
2019-05-25 12:00:00 17.5 10 Nordeste 29 Nordeste 0 938.5 0.3 50
2019-05-25 11:00:00 16.3 10 Nordeste 30 Nordeste 0 938.4 0.8 56
2019-05-25 10:00:00 14.7 12 Nordeste 30 Nordeste 0 938.4 0.9 61
2019-05-25 09:00:00 12.6 12 Nordeste 28 Nordeste 0 938.2 1.1 68
2019-05-25 08:00:00 11 10 Nordeste 24 Nordeste 0 937.6 0.3 76
2019-05-25 07:00:00 9.8 8 Nordeste 16 Nordeste 0 937.5 0.3 78
2019-05-25 06:00:00 9.9 6 Nordeste 14 Nordeste 0 937.1 0 76
2019-05-25 05:00:00 10.3 7 Nordeste 13 Nordeste 0 937.3 0.3 74
2019-05-25 04:00:00 10.6 5 Nordeste 14 Nordeste 0 937.2 -0.1 71
2019-05-25 03:00:00 11.4 8 Nordeste 18 Nordeste 0 937.1 0.1 65
2019-05-25 02:00:00 12.6 12 Nordeste 26 Nordeste 0 937 0.8 59
2019-05-25 01:00:00 14.4 4 Nordeste 13 Nordeste 0 937.3 1.9 53
2019-05-25 00:00:00 15.9 5 Nordeste 15 Nordeste 0 937 2.1 50
2019-05-24 23:00:00 16.8 8 Nordeste 21 Nordeste 0 936.2 1.9 47
2019-05-24 22:00:00 18.2 6 Nordeste 22 Nordeste 0 935.4 1.6 43
2019-05-24 21:00:00 19.8 10 Nordeste 28 Nordeste 0 934.9 1.1 41
2019-05-24 20:00:00 21.3 13 Nordeste 32 Nordeste 0 934.3 0.8 39
2019-05-24 19:00:00 22.3 13 Nordeste 31 Nordeste 0 933.8 0.6 38
2019-05-24 18:00:00 22.9 15 Nordeste 32 Nordeste 0 933.8 0.7 41
2019-05-24 17:00:00 22.6 12 Nordeste 34 Nordeste 0 933.5 0.3 45
2019-05-24 16:00:00 24 14 Nordeste 32 Nordeste 0 933.2 -0.3 38
2019-05-24 15:00:00 23.2 14 Nordeste 32 Nordeste 0 933.1 -1 42
2019-05-24 14:00:00 22.4 11 Nordeste 30 Nordeste 0 933.2 -0.8 45
2019-05-24 13:00:00 23 12 Nordeste 35 Nordeste 0 933.5 -0.4 45
2019-05-24 12:00:00 21.8 13 Nordeste 30 Nordeste 0 934.1 -0.3 48
2019-05-24 11:00:00 20.9 9 Nordeste 18 Nordeste 0 934 0.2 49
2019-05-24 10:00:00 18.4 3 Nordeste 18 Nordeste 0 933.9 -0.1 52
2019-05-24 09:00:00 16.5 5 Nordeste 11 Nordeste 0 934.4 0.7 55
2019-05-24 08:00:00 14.6 0 Calma 5 Sudoeste 0 933.8 -0.1 53
2019-05-24 07:00:00 14.7 0 Calma 4 Sudoeste 0 934 0 50
2019-05-24 06:00:00 15.3 0 Calma 4 Oeste 0 933.7 -0.7 46
2019-05-24 05:00:00 16 0 Calma 10 Noroeste 0 933.9 -0.6 44
2019-05-24 04:00:00 15.7 0 Calma 7 Sudoeste 0 934 -1 43
2019-05-24 03:00:00 15.6 5 Sudoeste 12 Sudoeste 0 934.4 -0.8 42
2019-05-24 02:00:00 17.3 0 Calma 5 Sudoeste 0 934.5 -0.9 39
2019-05-24 01:00:00 18.9 3 Nordeste 7 Nordeste 0 935 0.3 36
2019-05-24 00:00:00 19.9 2 Norte 16 Noroeste 0 935.2 0.5 34
2019-05-23 23:00:00 21.2 6 Noroeste 21 Noroeste 0 935.4 0.7 32
2019-05-23 22:00:00 23.3 8 Noroeste 22 Noroeste 0 934.7 -0.2 30
2019-05-23 21:00:00 25.4 7 Noroeste 24 Sudoeste 0 934.7 -0.7 29
2019-05-23 20:00:00 26.6 7 Sudoeste 24 Sudoeste 0 934.7 -1.3 29
2019-05-23 19:00:00 26.3 8 Sudoeste 26 Sudoeste 0 934.9 -1.4 29
2019-05-23 18:00:00 26.6 6 Sudoeste 23 Sudoeste 0 935.4 -1.7 28
2019-05-23 17:00:00 26.8 6 Sudoeste 22 Sudoeste 0 936 -1.4 29
2019-05-23 16:00:00 26.7 8 Noroeste 27 Sudoeste 0 936.3 -1.8 30
2019-05-23 15:00:00 26.5 5 Oeste 23 Sudoeste 0 937.1 -0.9 30
2019-05-23 14:00:00 26.7 3 Sudoeste 18 Sudoeste 0 937.4 -0.9 33
2019-05-23 13:00:00 24.8 5 Oeste 20 Sudoeste 0 938.1 -0.5 36
2019-05-23 12:00:00 23.5 3 Sudoeste 14 Sudoeste 0 938 -0.2 41
2019-05-23 11:00:00 20.7 7 Sudoeste 15 Sudoeste 0 938.3 0.4 47
2019-05-23 10:00:00 18.9 4 Sur 15 Sudeste 0 938.6 0.8 54
2019-05-23 09:00:00 16.9 4 Sur 13 Sudeste 0 938.2 0.7 62
2019-05-23 08:00:00 15.7 2 Sudeste 14 Sudeste 0 937.9 0.5 65
2019-05-23 07:00:00 14.7 4 Sudeste 18 Sudeste 0 937.8 0.8 64
2019-05-23 06:00:00 15.7 5 Sudeste 20 Sudeste 0 937.5 0.2 59
2019-05-23 05:00:00 16.1 5 Sudeste 17 Sudeste 0 937.4 -0.2 54
2019-05-23 04:00:00 16.4 4 Sudeste 10 Sudeste 0 937 -0.4 45
2019-05-23 03:00:00 17.4 3 Nordeste 6 Nordeste 0 937.3 0.2 41
2019-05-23 02:00:00 18.6 0 Calma 16 Sudoeste 0 937.6 0.3 37
2019-05-23 01:00:00 19.3 2 Nordeste 5 Nordeste 0 937.4 0.7 37
2019-05-23 00:00:00 20.1 0 Calma 6 Nordeste 0 937.1 1.1 34
2019-05-22 23:00:00 21.9 3 Nordeste 8 Nordeste 0 937.3 1.2 31
2019-05-22 22:00:00 24 0 Calma 5 Nordeste 0 936.7 0.2 30
2019-05-22 21:00:00 25.3 0 Calma 7 Noroeste 0 936 -0.3 28
2019-05-22 20:00:00 25.8 3 Noroeste 9 Noroeste 0 936.1 -0.3 28
2019-05-22 19:00:00 26.4 3 Noroeste 20 Noroeste 0 936.5 -0.3 27
2019-05-22 18:00:00 27 0 Calma 18 Sudoeste 0 936.3 -0.9 27
2019-05-22 17:00:00 26.4 3 Nordeste 18 Sudoeste 0 936.4 -1.6 27
2019-05-22 16:00:00 25 2 Norte 24 Sudoeste 0 936.8 -1.2 29
2019-05-22 15:00:00 25.4 5 Norte 18 Noroeste 0 937.2 -1.3 30
2019-05-22 14:00:00 23.4 4 Noroeste 12 Nordeste 0 938 -0.2 34
2019-05-22 13:00:00 22.8 3 Oeste 11 Sudoeste 0 938 0.1 41
2019-05-22 12:00:00 21.2 3 Sur 12 Sudeste 0 938.5 0.8 49
2019-05-22 11:00:00 19 5 Sur 16 Sudoeste 0 938.2 0.9 58
2019-05-22 10:00:00 16.7 5 Sudeste 17 Sudeste 0 937.9 0.9 66
2019-05-22 09:00:00 14.9 5 Sudeste 21 Sudeste 0 937.7 0.9 72
2019-05-22 08:00:00 13.4 3 Sudeste 14 Sudeste 0 937.3 0.6 76
2019-05-22 07:00:00 12.8 0 Calma 10 Nordeste 0 937 0.2 76
2019-05-22 06:00:00 13.1 2 Este 14 Sudeste 0 936.8 0.7 75
2019-05-22 05:00:00 13.4 4 Sudeste 19 Sudeste 0 936.7 0 74
2019-05-22 04:00:00 13.9 8 Sudeste 25 Sudeste 0 936.8 0.1 72
2019-05-22 03:00:00 14.3 8 Sudeste 28 Sudeste 0 936.1 -0.4 71
2019-05-22 02:00:00 14.6 8 Sudeste 27 Sudeste 0 936.7 0.8 69
2019-05-22 01:00:00 15.6 6 Sudeste 25 Sudeste 0 936.7 1.4 66
2019-05-22 00:00:00 16.7 9 Sudeste 28 Sudeste 0 936.5 1.5 63